Partizansk, Russia

10:57 AM +10 on January 17, 2017 (GMT +1000)
LES "Nakhodka" | | Change Station

Elev 292 ft 42.86 °N, 132.79 °E | Updated 1 minute ago

Clear
Clear
34.7 °F
Feels Like 35 °F
N
1.6
Wind Variable Wind from West
Gusts 2.2 mph

Today
High -- | Low -- °F
--% Chance of Precip.
Yesterday
High -- | Low -- °F
Precip. -- in
Pressure 30.45 in
Visibility 4.3 miles
Clouds Few 500 ft
Windchill 35 °F
Dew Point 7 °F
Humidity 31%
Rainfall 0.00 in
Snow Depth Not available.
8:35 AM 6:00 PM
Waning Gibbous, 77% visible
METAR UHWW 170030Z 00000MPS 7000 BR FU FEW005 M16/M18 Q1031 R25L/0///70 NOSIG RMK QFE772
Pressure 30.45 in
Visibility 4.3 miles
Clouds Few 500 ft
Windchill 35 °F
Dew Point 7 °F
Humidity 31%
Rainfall 0.00 in
Snow Depth Not available.
8:35 AM 6:00 PM
Waning Gibbous, 77% visible
METAR UHWW 170030Z 00000MPS 7000 BR FU FEW005 M16/M18 Q1031 R25L/0///70 NOSIG RMK QFE772

Get Your Daily Forecast Email!

Thanks for signing up!

Be on the lookout for a verification email in your inbox.

You'll start receiving the daily forecast at 8 AM.

×

10-Day Weather Forecast

×

Almanac

Astronomy

Jan. 17, 2017 Rise Set
Actual Time
Civil Twilight
Nautical Twilight
Astronomical Twilight
Moon
Length of Visible Light
Length of Day
Tomorrow will be .
, % of the Moon is Illuminated

Today's Extremes

Country Highs Country Lows

Community

WunderPhotos

Upload Photos

1,962,540 photos uploaded!

WunderBlog® & News

Nearby

Air Quality

  Air Quality AQ Index Pollutant
Not available.

Snow Depth

Station Depth Elevation

Earthquake Activity

City Distance Mag. Time & Date
Minimum magnitude displayed is 2.5.

Coastal Water Temperatures

Place Temperature

Stations

Nearby Weather Stations

Station Location Temp. Windchill Dew Point Humidity Wind Precip. Elev Updated Type